createdAt,value
2023-02-09T00:01:40.854Z,-1.10
2023-02-09T00:06:45.674Z,-1.00
2023-02-09T00:12:08.846Z,-1.10
2023-02-09T00:17:13.946Z,-1.10
2023-02-09T00:19:45.804Z,-1.20
2023-02-09T00:22:18.352Z,-1.20
2023-02-09T00:27:23.177Z,-1.20
2023-02-09T00:29:55.057Z,-1.30
2023-02-09T00:32:27.602Z,-1.20
2023-02-09T00:34:59.479Z,-1.30
2023-02-09T00:37:36.072Z,-1.30
2023-02-09T00:42:41.061Z,-1.20
2023-02-09T00:45:13.796Z,-1.20
2023-02-09T00:47:46.373Z,-1.10
2023-02-09T00:50:18.693Z,-1.20
2023-02-09T00:52:51.503Z,-1.20
2023-02-09T00:55:23.705Z,-1.20
2023-02-09T00:57:56.252Z,-1.20
2023-02-09T01:05:37.925Z,-1.20
2023-02-09T01:08:11.086Z,-1.20
2023-02-09T01:10:43.353Z,-1.20
2023-02-09T01:13:15.776Z,-1.30
2023-02-09T01:18:20.589Z,-1.50
2023-02-09T01:20:52.480Z,-1.50
2023-02-09T01:23:25.065Z,-1.50
2023-02-09T01:26:07.419Z,-1.60
2023-02-09T01:28:40.657Z,-1.50
2023-02-09T01:31:22.357Z,-1.50
2023-02-09T01:33:57.694Z,-1.40
2023-02-09T01:36:33.336Z,-1.40
2023-02-09T01:39:06.540Z,-1.50
2023-02-09T01:44:15.253Z,-1.70
2023-02-09T01:46:48.218Z,-1.60
2023-02-09T01:49:26.705Z,-1.60
2023-02-09T01:52:07.576Z,-1.70
2023-02-09T01:54:55.060Z,-1.60
2023-02-09T01:57:36.777Z,-1.70
2023-02-09T02:00:13.967Z,-1.70
2023-02-09T02:02:58.200Z,-1.70
2023-02-09T02:05:34.908Z,-1.80
2023-02-09T02:08:27.001Z,-1.70
2023-02-09T02:10:58.992Z,-1.80
2023-02-09T02:13:31.698Z,-1.90
2023-02-09T02:16:15.993Z,-1.80
2023-02-09T02:18:57.022Z,-1.80
2023-02-09T02:21:57.221Z,-1.70
2023-02-09T02:24:57.224Z,-1.80
2023-02-09T02:32:10.361Z,-2.00
2023-02-09T02:35:05.671Z,-2.10
2023-02-09T02:38:01.629Z,-2.20
2023-02-09T02:40:55.512Z,-2.20
2023-02-09T02:43:44.162Z,-2.30
2023-02-09T02:46:48.886Z,-2.30
2023-02-09T02:49:41.441Z,-2.40
2023-02-09T02:52:13.413Z,-2.30
2023-02-09T02:54:57.833Z,-2.40
2023-02-09T02:57:34.116Z,-2.40
2023-02-09T03:00:13.863Z,-2.30
2023-02-09T03:02:53.949Z,-2.30
2023-02-09T03:05:28.282Z,-2.30
2023-02-09T03:08:01.161Z,-2.20
2023-02-09T03:10:39.931Z,-2.30
2023-02-09T03:14:00.473Z,-2.30
2023-02-09T03:17:10.500Z,-2.40
2023-02-09T03:19:58.645Z,-2.30
2023-02-09T03:22:47.916Z,-2.40
2023-02-09T03:25:32.024Z,-2.40
2023-02-09T03:28:12.875Z,-2.40
2023-02-09T03:30:50.312Z,-2.40
2023-02-09T03:33:27.790Z,-2.40
2023-02-09T03:36:22.276Z,-2.30
2023-02-09T03:38:54.105Z,-2.30
2023-02-09T03:41:26.829Z,-2.30
2023-02-09T03:46:50.393Z,-2.30
2023-02-09T03:49:22.728Z,-2.30
2023-02-09T03:51:56.175Z,-2.40
2023-02-09T03:54:33.548Z,-2.20
2023-02-09T03:57:08.285Z,-2.20
2023-02-09T03:59:40.218Z,-2.30
2023-02-09T04:02:13.659Z,-2.30
2023-02-09T04:04:45.637Z,-2.30
2023-02-09T04:07:20.876Z,-2.40
2023-02-09T04:09:52.752Z,-2.40
2023-02-09T04:12:25.458Z,-2.40
2023-02-09T04:14:57.404Z,-2.40
2023-02-09T04:17:29.761Z,-2.40
2023-02-09T04:22:34.456Z,-2.50
2023-02-09T04:25:07.542Z,-2.50
2023-02-09T04:27:39.408Z,-2.40
2023-02-09T04:30:12.871Z,-2.40
2023-02-09T04:32:45.174Z,-2.40
2023-02-09T04:35:17.127Z,-2.30
2023-02-09T04:37:50.422Z,-2.30
2023-02-09T04:40:22.407Z,-2.40
2023-02-09T04:42:54.702Z,-2.40
2023-02-09T04:45:29.395Z,-2.40
2023-02-09T04:50:35.301Z,-2.50
2023-02-09T04:53:09.578Z,-2.60
2023-02-09T04:58:55.497Z,-2.50
2023-02-09T05:01:29.746Z,-2.60
2023-02-09T05:04:02.357Z,-2.60
2023-02-09T05:06:34.267Z,-2.60
2023-02-09T05:09:09.955Z,-2.60
2023-02-09T05:14:36.740Z,-2.60
2023-02-09T05:22:15.448Z,-2.70
2023-02-09T05:24:47.347Z,-2.70
2023-02-09T05:27:20.033Z,-2.60
2023-02-09T05:29:52.333Z,-2.60
2023-02-09T05:32:24.443Z,0.60
2023-02-09T05:34:57.224Z,-2.60
2023-02-09T05:37:29.931Z,-2.50
2023-02-09T05:42:35.074Z,-2.60
2023-02-09T05:45:08.963Z,-2.50
2023-02-09T05:50:14.220Z,-2.10
2023-02-09T05:52:46.213Z,-2.30
2023-02-09T05:57:51.766Z,-2.80
2023-02-09T06:00:25.078Z,-2.80
2023-02-09T06:02:58.881Z,-2.80
2023-02-09T06:05:30.832Z,-2.70
2023-02-09T06:08:03.709Z,-2.70
2023-02-09T06:10:35.654Z,-2.70
2023-02-09T06:16:01.883Z,-2.50
2023-02-09T06:18:34.194Z,-2.60
2023-02-09T06:21:07.305Z,-2.70
2023-02-09T06:23:40.578Z,-2.60
2023-02-09T06:26:16.734Z,-2.70
2023-02-09T06:28:51.977Z,-2.60
2023-02-09T06:33:57.571Z,-2.60
2023-02-09T06:36:29.528Z,-2.50
2023-02-09T06:41:35.336Z,-2.50
2023-02-09T06:44:08.284Z,-2.50
2023-02-09T06:46:40.303Z,-2.60
2023-02-09T06:49:13.388Z,-2.60
2023-02-09T06:51:45.520Z,-2.50
2023-02-09T06:56:51.294Z,-2.70
2023-02-09T06:59:24.298Z,-2.60
2023-02-09T07:04:33.865Z,-2.90
2023-02-09T07:07:06.187Z,-3.00
2023-02-09T07:09:38.112Z,-3.00
2023-02-09T07:12:13.852Z,-3.00
2023-02-09T07:14:46.217Z,-2.80
2023-02-09T07:17:22.704Z,-2.70
2023-02-09T07:19:54.616Z,-2.60
2023-02-09T07:22:27.124Z,-2.50
2023-02-09T07:24:59.599Z,-2.40
2023-02-09T07:27:31.994Z,-2.50
2023-02-09T07:30:05.304Z,-2.40
2023-02-09T07:32:39.642Z,-2.20
2023-02-09T07:35:11.907Z,-2.20
2023-02-09T07:37:45.252Z,-2.20
2023-02-09T07:40:18.806Z,-2.20
2023-02-09T07:42:54.587Z,-2.10
2023-02-09T07:45:26.580Z,-2.10
2023-02-09T07:47:58.930Z,-2.00
2023-02-09T07:50:31.085Z,-2.00
2023-02-09T07:56:18.053Z,-1.90
2023-02-09T07:58:51.432Z,-1.80
2023-02-09T08:01:24.653Z,-1.80
2023-02-09T08:03:58.388Z,-1.60
2023-02-09T08:06:45.086Z,-1.60
2023-02-09T08:09:18.153Z,-1.50
2023-02-09T08:12:02.699Z,-1.50
2023-02-09T08:14:43.412Z,-1.40
2023-02-09T08:17:24.300Z,-1.30
2023-02-09T08:20:08.743Z,-1.20
2023-02-09T08:22:47.415Z,-1.10
2023-02-09T08:25:23.275Z,-1.10
2023-02-09T08:27:56.307Z,-1.00
2023-02-09T08:30:29.426Z,-0.90
2023-02-09T08:38:29.451Z,-0.40
2023-02-09T08:41:06.772Z,-0.30
2023-02-09T08:43:41.562Z,-0.40
2023-02-09T08:48:50.331Z,-0.50
2023-02-09T08:51:22.919Z,-0.50
2023-02-09T08:53:55.942Z,-0.60
2023-02-09T08:56:28.000Z,-0.60
2023-02-09T08:59:01.365Z,-0.60
2023-02-09T09:04:10.300Z,0.90
2023-02-09T09:06:42.185Z,2.20
2023-02-09T09:09:17.716Z,3.30
2023-02-09T09:11:49.613Z,4.00
2023-02-09T09:14:21.959Z,3.70
2023-02-09T09:16:57.097Z,3.70
2023-02-09T09:19:31.660Z,3.50
2023-02-09T09:22:03.723Z,3.40
2023-02-09T09:24:40.939Z,3.60
2023-02-09T09:29:46.354Z,3.70
2023-02-09T09:32:25.201Z,3.80
2023-02-09T09:34:59.600Z,3.80
2023-02-09T09:37:33.526Z,3.90
2023-02-09T09:40:05.673Z,4.20
2023-02-09T09:42:43.540Z,4.20
2023-02-09T09:45:22.380Z,4.30
2023-02-09T09:47:57.534Z,4.20
2023-02-09T09:50:37.963Z,4.20
2023-02-09T09:53:25.289Z,4.40
2023-02-09T09:56:00.811Z,4.50
2023-02-09T09:58:35.532Z,4.70
2023-02-09T10:01:17.520Z,4.80
2023-02-09T10:03:50.079Z,4.90
2023-02-09T10:06:23.868Z,4.90
2023-02-09T10:08:59.971Z,4.60
2023-02-09T10:11:44.558Z,4.40
2023-02-09T10:14:16.430Z,7.10
2023-02-09T10:16:49.237Z,4.70
2023-02-09T10:19:28.471Z,4.50
2023-02-09T10:22:00.395Z,4.80
2023-02-09T10:24:36.108Z,5.10
2023-02-09T10:27:29.750Z,5.00
2023-02-09T10:30:28.856Z,5.00
2023-02-09T10:33:02.195Z,4.90
2023-02-09T10:35:48.088Z,5.10
2023-02-09T10:38:24.445Z,5.10
2023-02-09T10:40:58.397Z,5.30
2023-02-09T10:43:33.846Z,5.30
2023-02-09T10:46:19.942Z,5.20
2023-02-09T10:51:31.566Z,5.10
2023-02-09T10:54:08.158Z,5.30
2023-02-09T10:56:48.671Z,5.30
2023-02-09T10:59:24.371Z,5.60
2023-02-09T11:02:02.403Z,5.70
2023-02-09T11:04:40.673Z,5.70
2023-02-09T11:07:18.498Z,5.90
2023-02-09T11:09:51.961Z,5.80
2023-02-09T11:12:25.646Z,6.00
2023-02-09T11:14:57.757Z,6.00
2023-02-09T11:17:50.665Z,6.00
2023-02-09T11:20:30.766Z,6.20
2023-02-09T11:23:45.679Z,6.40
2023-02-09T11:26:38.888Z,6.70
2023-02-09T11:29:27.446Z,6.80
2023-02-09T11:32:17.479Z,6.60
2023-02-09T11:35:08.848Z,6.70
2023-02-09T11:40:38.583Z,6.80
2023-02-09T11:45:55.020Z,7.20
2023-02-09T11:48:41.667Z,9.00
2023-02-09T11:51:23.465Z,7.50
2023-02-09T11:54:22.835Z,8.10
2023-02-09T11:57:01.891Z,8.20
2023-02-09T11:59:47.290Z,8.20
2023-02-09T12:02:51.931Z,8.50
2023-02-09T12:05:25.399Z,8.70
2023-02-09T12:08:34.145Z,9.20
2023-02-09T12:11:42.532Z,9.30
2023-02-09T12:14:49.231Z,9.00
2023-02-09T12:17:26.291Z,8.80
2023-02-09T12:20:02.145Z,8.80
2023-02-09T12:22:34.005Z,8.80
2023-02-09T12:25:13.897Z,8.80
2023-02-09T12:28:24.453Z,9.10
2023-02-09T12:31:28.229Z,8.70
2023-02-09T12:34:09.843Z,8.50
2023-02-09T12:37:27.297Z,8.40
2023-02-09T12:40:11.788Z,8.60
2023-02-09T12:42:53.260Z,8.40
2023-02-09T12:45:43.440Z,8.40
2023-02-09T12:48:19.465Z,8.40
2023-02-09T12:50:55.716Z,8.40
2023-02-09T12:53:34.793Z,8.40
2023-02-09T12:56:09.592Z,8.30
2023-02-09T12:58:45.821Z,8.10
2023-02-09T13:01:17.932Z,8.10
2023-02-09T13:04:07.959Z,7.90
2023-02-09T13:06:47.971Z,7.90
2023-02-09T13:09:30.013Z,8.10
2023-02-09T13:12:14.820Z,8.20
2023-02-09T13:14:51.044Z,8.10
2023-02-09T13:18:06.742Z,8.00
2023-02-09T13:21:27.406Z,8.00
2023-02-09T13:24:11.947Z,8.10
2023-02-09T13:27:00.730Z,8.10
2023-02-09T13:32:29.457Z,8.00
2023-02-09T13:35:19.474Z,8.10
2023-02-09T13:38:09.986Z,8.10
2023-02-09T13:40:48.534Z,8.40
2023-02-09T13:43:27.277Z,8.20
2023-02-09T13:46:02.058Z,8.10
2023-02-09T13:48:39.993Z,8.00
2023-02-09T13:51:20.817Z,7.80
2023-02-09T13:53:59.254Z,7.80
2023-02-09T13:56:33.317Z,7.60
2023-02-09T14:01:40.767Z,7.60
2023-02-09T14:04:22.916Z,7.80
2023-02-09T14:07:08.668Z,7.70
2023-02-09T14:09:53.389Z,7.80
2023-02-09T14:12:55.903Z,7.70
2023-02-09T14:15:56.011Z,7.60
2023-02-09T14:18:48.175Z,7.50
2023-02-09T14:21:27.707Z,7.40
2023-02-09T14:23:59.425Z,7.50
2023-02-09T14:26:49.647Z,7.50
2023-02-09T14:29:30.506Z,7.50
2023-02-09T14:32:35.941Z,7.40
2023-02-09T14:35:29.266Z,7.50
2023-02-09T14:38:03.104Z,7.50
2023-02-09T14:40:37.982Z,7.40
2023-02-09T14:43:13.539Z,7.40
2023-02-09T14:45:49.449Z,7.40
2023-02-09T14:48:27.785Z,7.50
2023-02-09T14:51:05.409Z,7.40
2023-02-09T14:53:37.448Z,7.40
2023-02-09T14:56:30.419Z,7.40
2023-02-09T14:59:02.336Z,7.20
2023-02-09T15:01:34.794Z,7.20
2023-02-09T15:04:06.776Z,7.30
2023-02-09T15:06:42.156Z,7.30
2023-02-09T15:09:29.201Z,7.40
2023-02-09T15:12:05.262Z,7.40
2023-02-09T15:14:46.396Z,7.30
2023-02-09T15:17:23.106Z,7.30
2023-02-09T15:19:57.177Z,7.20
2023-02-09T15:22:29.604Z,7.20
2023-02-09T15:25:01.527Z,7.10
2023-02-09T15:27:51.280Z,7.30
2023-02-09T15:30:34.331Z,7.10
2023-02-09T15:33:12.313Z,7.00
2023-02-09T15:35:44.460Z,7.00
2023-02-09T15:38:18.853Z,10.20
2023-02-09T15:41:09.737Z,8.90
2023-02-09T15:44:01.475Z,8.10
2023-02-09T15:46:51.975Z,7.50
2023-02-09T15:49:24.438Z,7.20
2023-02-09T15:54:33.579Z,6.90
2023-02-09T15:57:06.207Z,6.70
2023-02-09T15:59:41.703Z,6.60
2023-02-09T16:02:16.550Z,6.50
2023-02-09T16:04:49.366Z,6.50
2023-02-09T16:07:26.469Z,6.50
2023-02-09T16:09:59.166Z,6.50
2023-02-09T16:12:32.147Z,6.40
2023-02-09T16:15:15.369Z,6.40
2023-02-09T16:20:20.901Z,6.30
2023-02-09T16:22:54.609Z,6.20
2023-02-09T16:25:28.747Z,6.10
2023-02-09T16:35:44.530Z,5.70
2023-02-09T16:38:19.886Z,5.60
2023-02-09T16:40:54.690Z,5.50
2023-02-09T16:43:26.675Z,5.30
2023-02-09T16:46:03.690Z,5.10
2023-02-09T16:48:45.217Z,5.00
2023-02-09T16:53:51.651Z,4.90
2023-02-09T16:56:26.607Z,4.80
2023-02-09T16:58:58.619Z,4.70
2023-02-09T17:04:07.184Z,4.30
2023-02-09T17:06:40.254Z,4.10
2023-02-09T17:09:16.404Z,4.00
2023-02-09T17:11:58.048Z,4.00
2023-02-09T17:14:29.937Z,3.90
2023-02-09T17:17:03.397Z,3.90
2023-02-09T17:19:47.057Z,3.60
2023-02-09T17:22:20.608Z,3.50
2023-02-09T17:24:52.609Z,3.50
2023-02-09T17:27:25.086Z,3.50
2023-02-09T17:29:57.027Z,3.40
2023-02-09T17:32:29.470Z,3.40
2023-02-09T17:35:01.668Z,3.30
2023-02-09T17:37:34.297Z,1.70
2023-02-09T17:40:06.525Z,3.20
2023-02-09T17:45:27.495Z,3.20
2023-02-09T17:48:01.073Z,3.10
2023-02-09T17:50:32.988Z,3.00
2023-02-09T17:53:38.100Z,2.90
2023-02-09T17:56:09.992Z,2.80
2023-02-09T17:58:45.363Z,2.80
2023-02-09T18:01:27.631Z,2.70
2023-02-09T18:04:02.644Z,2.60
2023-02-09T18:06:40.555Z,2.60
2023-02-09T18:09:14.541Z,2.60
2023-02-09T18:11:52.475Z,2.60
2023-02-09T18:14:26.901Z,2.60
2023-02-09T18:16:58.888Z,2.50
2023-02-09T18:19:31.606Z,2.40
2023-02-09T18:22:04.162Z,2.50
2023-02-09T18:24:36.668Z,2.50
2023-02-09T18:27:15.257Z,2.40
2023-02-09T18:29:47.937Z,2.40
2023-02-09T18:32:21.012Z,2.40
2023-02-09T18:34:53.807Z,2.40
2023-02-09T18:37:25.819Z,2.30
2023-02-09T18:39:58.546Z,2.20
2023-02-09T18:42:30.487Z,2.10
2023-02-09T18:45:04.064Z,2.10
2023-02-09T18:47:37.222Z,2.00
2023-02-09T18:50:18.187Z,1.90
2023-02-09T18:52:59.867Z,2.00
2023-02-09T18:55:35.319Z,2.00
2023-02-09T18:58:09.434Z,2.00
2023-02-09T19:00:41.916Z,2.00
2023-02-09T19:03:16.865Z,1.90
2023-02-09T19:05:50.050Z,1.90
2023-02-09T19:08:22.015Z,1.90
2023-02-09T19:10:54.444Z,1.80
2023-02-09T19:13:26.562Z,1.80
2023-02-09T19:15:59.024Z,1.90
2023-02-09T19:18:31.603Z,1.90
2023-02-09T19:21:09.091Z,1.80
2023-02-09T19:23:41.042Z,1.70
2023-02-09T19:26:13.440Z,1.60
2023-02-09T19:28:45.414Z,1.50
2023-02-09T19:31:19.119Z,1.40
2023-02-09T19:33:56.354Z,3.90
2023-02-09T19:36:30.394Z,2.60
2023-02-09T19:39:02.301Z,2.80
2023-02-09T19:41:37.233Z,1.90
2023-02-09T19:44:09.106Z,1.60
2023-02-09T19:46:42.849Z,1.50
2023-02-09T19:49:14.816Z,1.40
2023-02-09T19:51:48.766Z,1.40
2023-02-09T19:54:20.681Z,1.20
2023-02-09T19:59:26.169Z,1.20
2023-02-09T20:01:59.390Z,1.10
2023-02-09T20:04:31.328Z,1.20
2023-02-09T20:07:04.222Z,1.30
2023-02-09T20:09:36.501Z,1.30
2023-02-09T20:12:10.384Z,1.40
2023-02-09T20:14:42.344Z,1.40
2023-02-09T20:17:20.360Z,1.30
2023-02-09T20:19:53.542Z,1.50
2023-02-09T20:22:26.341Z,1.50
2023-02-09T20:24:58.206Z,1.40
2023-02-09T20:27:31.026Z,1.30
2023-02-09T20:30:07.347Z,1.30
2023-02-09T20:32:40.115Z,1.40
2023-02-09T20:35:12.334Z,1.30
2023-02-09T20:37:45.098Z,1.20
2023-02-09T20:40:43.232Z,1.40
2023-02-09T20:43:34.897Z,1.50
2023-02-09T20:46:26.296Z,1.40
2023-02-09T20:49:20.499Z,1.50
2023-02-09T20:51:53.287Z,1.50
2023-02-09T20:54:26.258Z,1.40
2023-02-09T20:56:58.604Z,1.20
2023-02-09T20:59:31.592Z,1.20
2023-02-09T21:02:03.559Z,1.00
2023-02-09T21:04:36.307Z,0.90
2023-02-09T21:07:08.397Z,0.80
2023-02-09T21:09:41.642Z,0.70
2023-02-09T21:12:14.569Z,0.80
2023-02-09T21:14:48.118Z,0.80
2023-02-09T21:17:21.001Z,0.80
2023-02-09T21:19:53.736Z,0.90
2023-02-09T21:22:25.664Z,0.90
2023-02-09T21:27:33.011Z,0.80
2023-02-09T21:30:06.908Z,0.70
2023-02-09T21:32:39.429Z,0.70
2023-02-09T21:35:12.568Z,0.60
2023-02-09T21:37:44.494Z,0.60
2023-02-09T21:40:17.429Z,0.50
2023-02-09T21:42:50.101Z,0.50
2023-02-09T21:45:22.662Z,0.60
2023-02-09T21:47:54.677Z,0.70
2023-02-09T21:50:27.475Z,0.70
2023-02-09T21:53:02.248Z,0.90
2023-02-09T21:55:34.864Z,0.90
2023-02-09T21:58:29.072Z,0.80
2023-02-09T22:01:01.440Z,0.80
2023-02-09T22:03:33.402Z,0.50
2023-02-09T22:06:07.508Z,0.50
2023-02-09T22:08:41.361Z,0.30
2023-02-09T22:11:13.641Z,0.40
2023-02-09T22:13:45.572Z,0.60
2023-02-09T22:16:21.195Z,0.60
2023-02-09T22:18:53.210Z,0.60
2023-02-09T22:21:26.366Z,0.60
2023-02-09T22:23:58.208Z,0.50
2023-02-09T22:26:30.891Z,0.50
2023-02-09T22:29:03.317Z,0.60
2023-02-09T22:31:35.594Z,0.60
2023-02-09T22:34:07.995Z,0.50
2023-02-09T22:36:40.296Z,0.40
2023-02-09T22:39:13.248Z,0.40
2023-02-09T22:41:48.789Z,0.40
2023-02-09T22:44:21.171Z,0.40
2023-02-09T22:46:53.511Z,0.40
2023-02-09T22:49:25.795Z,0.30
2023-02-09T22:51:57.653Z,0.40
2023-02-09T22:54:29.963Z,0.40
2023-02-09T22:57:02.279Z,0.50
2023-02-09T22:59:36.159Z,0.40
2023-02-09T23:02:10.510Z,0.40
2023-02-09T23:04:44.096Z,0.30
2023-02-09T23:07:38.558Z,0.20
2023-02-09T23:10:12.089Z,0.30
2023-02-09T23:12:45.077Z,0.30
2023-02-09T23:15:18.700Z,0.10
2023-02-09T23:17:51.000Z,0.00
2023-02-09T23:20:23.336Z,-0.10
2023-02-09T23:22:56.352Z,-0.20
2023-02-09T23:25:29.291Z,-0.20
2023-02-09T23:28:01.330Z,-0.30
2023-02-09T23:30:34.853Z,-0.30
2023-02-09T23:33:07.109Z,-0.30
2023-02-09T23:35:40.415Z,-0.40
2023-02-09T23:38:12.331Z,-0.50
2023-02-09T23:40:45.598Z,-0.50
2023-02-09T23:43:18.713Z,-0.40
2023-02-09T23:45:52.307Z,-0.40
2023-02-09T23:48:24.398Z,-0.50
2023-02-09T23:51:06.324Z,-0.40
2023-02-09T23:53:39.436Z,-0.30
2023-02-09T23:56:15.107Z,-0.30
2023-02-09T23:58:49.757Z,-0.30
